.
WxDataArchive / Data Records for 2012-06-08
2012-06-07 June 2012 2012-06-09

Data Records for Friday, 08 June 2012

Time	Temp	Chill	HIndex	Humid	Dewpt	 Wind 	HiWind	WindDir	Rain 	Barom 
-----	----	-----	------	-----	-----	------	------	-------	-----	----- 
00:00	65.8	65.8	65.8	49	46.1	0	0	---	0.00	30.045 
00:05	65.6	65.6	65.6	49	45.9	0	0	---	0.00	30.045 
00:10	65.3	65.3	65.3	50	46.2	0	0	---	0.00	30.045 
00:15	65.2	65.2	65.2	50	46.1	0	0	---	0.00	30.047 
00:20	65.0	65.0	65.0	50	45.9	0	0	---	0.00	30.047 
00:25	65.0	65.0	65.0	50	45.9	0	0	---	0.00	30.047 
00:30	64.8	64.8	64.8	50	45.7	0	0	---	0.00	30.048 
00:35	64.7	64.7	64.7	52	46.7	0	0	---	0.00	30.048 
00:40	64.3	64.3	64.3	52	46.3	0	0	---	0.00	30.048 
00:45	63.9	63.9	63.9	54	46.9	0	0	---	0.00	30.050 
00:50	63.2	63.2	63.2	55	46.8	0	0	---	0.00	30.050 
00:55	62.7	62.7	62.7	56	46.8	0	0	---	0.00	30.050 
01:00	62.4	62.4	62.4	56	46.5	0	0	---	0.00	30.050 
01:05	62.0	62.0	62.0	58	47.0	0	0	---	0.00	30.050 
01:10	61.6	61.6	61.6	58	46.7	0	0	---	0.00	30.050 
01:15	61.2	61.2	61.2	59	46.8	0	0	---	0.00	30.045 
01:20	60.9	60.9	60.9	59	46.5	0	0	---	0.00	30.045 
01:25	60.4	60.4	60.4	61	46.9	0	0	---	0.00	30.045 
01:30	60.1	60.1	60.1	62	47.0	0	0	---	0.00	30.044 
01:35	59.8	59.8	59.8	63	47.2	0	0	---	0.00	30.044 
01:40	59.6	59.6	59.6	63	47.0	0	0	---	0.00	30.044 
01:45	59.5	59.5	59.5	64	47.3	0	0	---	0.00	30.043 
01:50	59.3	59.3	59.3	64	47.1	0	0	---	0.00	30.043 
01:55	59.3	59.3	59.3	64	47.1	0	0	---	0.00	30.043 
02:00	59.2	59.2	59.2	65	47.4	0	0	---	0.00	30.040 
02:05	59.0	59.0	59.0	65	47.2	0	0	---	0.00	30.040 
02:10	59.0	59.0	59.0	66	47.7	0	0	---	0.00	30.040 
02:15	58.9	58.9	58.9	66	47.6	0	0	---	0.00	30.039 
02:20	58.6	58.6	58.6	67	47.7	0	0	---	0.00	30.039 
02:25	58.4	58.4	58.4	68	47.9	0	0	---	0.00	30.039 
02:30	58.3	58.3	58.3	68	47.8	0	0	---	0.00	30.037 
02:35	58.3	58.3	58.3	68	47.8	0	0	---	0.00	30.037 
02:40	58.3	58.3	58.3	68	47.8	0	0	---	0.00	30.037 
02:45	58.3	58.3	58.3	68	47.8	0	0	---	0.00	30.037 
02:50	58.1	58.1	58.1	68	47.6	0	0	---	0.00	30.037 
02:55	58.1	58.1	58.1	68	47.6	0	0	---	0.00	30.037 
03:00	57.8	57.8	57.8	69	47.7	0	0	---	0.00	30.037 
03:05	57.5	57.5	57.5	69	47.4	0	0	---	0.00	30.037 
03:10	57.3	57.3	57.3	69	47.2	0	0	---	0.00	30.037 
03:15	57.2	57.2	57.2	69	47.1	0	0	---	0.00	30.039 
03:20	57.2	57.2	57.2	69	47.1	0	0	---	0.00	30.039 
03:25	57.3	57.3	57.3	68	46.8	0	0	---	0.00	30.039 
03:30	57.3	57.3	57.3	67	46.4	0	0	---	0.00	30.040 
03:35	57.5	57.5	57.5	66	46.2	0	0	---	0.00	30.040 
03:40	57.5	57.5	57.5	66	46.2	0	0	---	0.00	30.040 
03:45	57.6	57.6	57.6	65	45.9	0	0	---	0.00	30.036 
03:50	57.6	57.6	57.6	65	45.9	0	0	---	0.00	30.036 
03:55	57.5	57.5	57.5	65	45.8	0	0	---	0.00	30.036 
04:00	57.2	57.2	57.2	66	45.9	0	0	---	0.00	30.037 
04:05	56.7	56.7	56.7	67	45.9	0	0	---	0.00	30.037 
04:10	56.5	56.5	56.5	67	45.7	0	0	---	0.00	30.037 
04:15	56.0	56.0	56.0	68	45.6	0	0	---	0.00	30.039 
04:20	55.7	55.7	55.7	69	45.7	0	0	---	0.00	30.039 
04:25	55.6	55.6	55.6	70	46.0	0	0	---	0.00	30.039 
04:30	55.4	55.4	55.4	70	45.8	0	0	---	0.00	30.044 
04:35	55.4	55.4	55.4	70	45.8	0	1	292	0.00	30.044 
04:40	55.4	55.4	55.4	70	45.8	0	0	---	0.00	30.044 
04:45	55.4	55.4	55.4	69	45.4	0	1	292	0.00	30.042 
04:50	55.6	55.6	55.6	69	45.6	0	0	---	0.00	30.042 
04:55	55.6	55.6	55.6	69	45.6	0	0	---	0.00	30.042 
05:00	55.4	55.4	55.4	69	45.4	0	0	---	0.00	30.043 
05:05	55.1	55.1	55.1	69	45.1	0	0	---	0.00	30.043 
05:10	54.7	54.7	54.7	70	45.1	0	0	---	0.00	30.043 
05:15	54.2	54.2	54.2	71	45.0	0	0	---	0.00	30.048 
05:20	53.9	53.9	53.9	71	44.7	0	0	---	0.00	30.048 
05:25	53.6	53.6	53.6	73	45.2	0	0	---	0.00	30.048 
05:30	53.3	53.3	53.3	73	44.9	0	0	---	0.00	30.050 
05:35	53.2	53.2	53.2	74	45.1	0	0	---	0.00	30.050 
05:40	53.1	53.1	53.1	75	45.4	0	0	---	0.00	30.050 
05:45	52.9	52.9	52.9	76	45.5	0	0	---	0.00	30.046 
05:50	52.6	52.6	52.6	76	45.3	0	0	---	0.00	30.046 
05:55	52.5	52.5	52.5	77	45.5	0	0	---	0.00	30.046 
06:00	52.3	52.3	52.3	77	45.3	0	0	---	0.00	30.042 
06:05	52.2	52.2	52.2	77	45.2	0	0	---	0.00	30.042 
06:10	52.0	52.0	52.0	78	45.4	0	0	---	0.00	30.042 
06:15	52.0	52.0	52.0	78	45.4	0	0	---	0.00	30.047 
06:20	51.9	51.9	51.9	78	45.3	0	0	---	0.00	30.047 
06:25	51.9	51.9	51.9	78	45.3	0	0	---	0.00	30.047 
06:30	51.9	51.9	51.9	79	45.6	0	0	---	0.00	30.051 
06:35	51.7	51.7	51.7	79	45.4	0	0	---	0.00	30.051 
06:40	51.7	51.7	51.7	79	45.4	0	0	---	0.00	30.051 
06:45	51.9	51.9	51.9	80	45.9	0	0	---	0.00	30.057 
06:50	52.2	52.2	52.2	80	46.2	0	0	---	0.00	30.057 
06:55	52.5	52.5	52.5	80	46.5	0	0	---	0.00	30.057 
07:00	52.8	52.8	52.8	80	46.8	0	0	---	0.00	30.060 
07:05	53.2	53.2	53.2	79	46.9	0	0	---	0.00	30.060 
07:10	53.6	53.6	53.6	78	46.9	0	0	---	0.00	30.060 
07:15	54.2	54.2	54.2	77	47.1	0	0	---	0.00	30.070 
07:20	54.8	54.8	54.8	75	47.0	0	0	---	0.00	30.070 
07:25	55.7	55.7	55.7	73	47.2	0	0	---	0.00	30.070 
07:30	56.5	56.5	56.5	71	47.2	0	0	---	0.00	30.071 
07:35	57.2	57.2	57.2	69	47.1	0	1	292	0.00	30.071 
07:40	58.1	58.1	58.1	67	47.2	0	1	292	0.00	30.071 
07:45	59.0	59.0	59.0	64	46.8	0	1	292	0.00	30.072 
07:50	59.9	59.9	59.9	62	46.8	0	1	292	0.00	30.072 
07:55	60.7	60.7	60.7	60	46.7	0	1	292	0.00	30.072 
08:00	61.6	61.6	61.6	58	46.7	0	1	292	0.00	30.068 
08:05	62.4	62.4	62.4	56	46.5	0	1	292	0.00	30.068 
08:10	63.4	63.4	63.4	55	46.9	0	1	292	0.00	30.068 
08:15	64.0	64.0	64.0	53	46.5	0	2	292	0.00	30.069 
08:20	64.5	64.5	64.5	52	46.5	1	2	292	0.00	30.069 
08:25	65.2	65.2	65.2	50	46.1	0	1	292	0.00	30.069 
08:30	65.8	65.8	65.8	49	46.1	0	1	292	0.00	30.068 
08:35	66.6	66.6	66.6	50	47.4	0	1	292	0.00	30.068 
08:40	67.3	67.3	67.3	45	45.2	0	2	292	0.00	30.068 
08:45	67.9	67.9	67.9	43	44.6	0	1	292	0.00	30.067 
08:50	68.8	68.8	68.8	45	46.6	0	1	292	0.00	30.067 
08:55	69.6	69.6	69.6	43	46.1	0	1	292	0.00	30.067 
09:00	70.3	70.3	70.3	40	44.8	0	2	292	0.00	30.068 
09:05	70.9	70.9	70.9	38	44.0	0	1	292	0.00	30.068 
09:10	71.6	71.6	71.6	34	41.7	1	2	292	0.00	30.068 
09:15	72.1	72.1	72.1	35	42.9	1	2	292	0.00	30.069 
09:20	72.5	72.5	72.5	37	44.7	0	1	292	0.00	30.069 
09:25	73.2	73.2	73.2	36	44.6	0	1	292	0.00	30.069 
09:30	73.7	73.7	73.7	34	43.6	1	2	292	0.00	30.064 
09:35	74.0	74.0	74.0	33	43.1	1	2	292	0.00	30.064 
09:40	74.6	74.6	74.6	32	42.8	1	3	292	0.00	30.064 
09:45	74.7	74.7	74.7	30	41.2	1	3	292	0.00	30.062 
09:50	75.1	75.1	76.8	28	39.8	1	3	292	0.00	30.062 
09:55	75.4	75.4	76.8	27	39.1	1	4	292	0.00	30.062 
10:00	75.6	75.6	77.0	28	40.2	0	2	292	0.00	30.061 
10:05	76.1	76.1	77.2	28	40.6	1	3	292	0.00	30.061 
10:10	76.1	76.1	77.0	26	38.7	1	3	292	0.00	30.061 
10:15	76.7	76.7	77.3	27	40.2	1	3	292	0.00	30.054 
10:20	77.2	77.2	77.6	28	41.6	1	3	292	0.00	30.054 
10:25	77.4	77.4	77.5	25	38.8	2	3	292	0.00	30.054 
10:30	77.0	77.0	77.3	25	38.5	1	3	292	0.00	30.055 
10:35	77.6	77.6	77.6	25	39.0	1	4	292	0.00	30.055 
10:40	77.7	77.7	77.6	24	38.0	2	4	292	0.00	30.055 
10:45	77.7	77.7	77.6	25	39.1	1	4	292	0.00	30.056 
10:50	78.1	78.1	77.8	25	39.4	2	4	292	0.00	30.056 
10:55	78.6	78.6	78.1	25	39.8	1	3	292	0.00	30.056 
11:00	79.2	79.2	78.4	25	40.3	1	2	292	0.00	30.050 
11:05	79.4	79.4	78.5	25	40.5	2	3	292	0.00	30.050 
11:10	79.6	79.6	78.6	25	40.7	1	3	292	0.00	30.050 
11:15	79.8	79.8	78.8	25	40.8	1	3	292	0.00	30.050 
11:20	79.6	79.6	78.6	24	39.6	2	5	292	0.00	30.050 
11:25	79.9	79.9	78.8	25	40.9	2	3	292	0.00	30.050 
11:30	79.9	79.9	78.8	24	39.9	2	4	292	0.00	30.048 
11:35	80.1	80.1	78.9	24	40.0	1	3	292	0.00	30.048 
11:40	79.9	79.9	78.9	26	41.9	2	4	292	0.00	30.048 
11:45	80.5	80.5	79.1	24	40.4	2	5	270	0.00	30.048 
11:50	80.3	80.3	79.0	25	41.2	1	3	315	0.00	30.048 
11:55	80.5	80.5	79.1	24	40.4	2	4	315	0.00	30.048 
12:00	80.7	80.7	79.2	24	40.5	1	3	270	0.00	30.047 
12:05	80.9	80.9	79.4	25	41.8	2	6	292	0.00	30.047 
12:10	80.7	80.7	79.2	23	39.4	4	7	270	0.00	30.047 
12:15	80.7	80.7	79.2	24	40.5	2	4	270	0.00	30.050 
12:20	80.9	80.9	79.2	22	38.5	3	7	270	0.00	30.050 
12:25	81.1	81.1	79.5	25	41.9	2	5	270	0.00	30.050 
12:30	81.2	81.2	79.5	24	41.0	3	5	270	0.00	30.048 
12:35	81.4	81.4	79.6	23	40.0	2	4	270	0.00	30.048 
12:40	81.4	81.4	79.6	23	40.0	2	6	315	0.00	30.048 
12:45	81.6	81.6	79.7	22	39.0	2	4	292	0.00	30.037 
12:50	81.6	81.6	79.8	24	41.3	2	6	315	0.00	30.037 
12:55	81.8	81.8	79.9	23	40.4	1	4	315	0.00	30.037 
13:00	81.8	81.8	79.8	22	39.2	1	3	0	0.00	30.035 
13:05	82.4	82.4	80.2	22	39.7	1	3	338	0.00	30.035 
13:10	82.4	82.4	80.2	21	38.5	1	5	338	0.00	30.035 
13:15	82.8	82.8	80.6	23	41.2	0	3	270	0.00	30.032 
13:20	83.2	83.2	80.8	22	40.4	1	4	270	0.00	30.032 
13:25	83.6	83.6	81.3	25	44.0	1	2	292	0.00	30.032 
13:30	83.4	83.4	81.1	24	42.8	1	3	315	0.00	30.020 
13:35	83.0	83.0	80.6	21	39.0	1	3	315	0.00	30.020 
13:40	82.8	82.8	80.5	22	40.0	2	6	112	0.00	30.020 
13:45	83.2	83.2	80.8	23	41.5	1	5	270	0.00	30.018 
13:50	83.6	83.6	81.1	23	41.9	1	4	270	0.00	30.018 
13:55	84.0	84.0	81.4	22	41.0	1	5	270	0.00	30.018 
14:00	84.1	84.1	81.5	23	42.3	1	3	270	0.00	30.013 
14:05	84.3	84.3	81.7	23	42.4	1	4	315	0.00	30.013 
14:10	84.3	84.3	81.6	22	41.3	2	4	315	0.00	30.013 
14:15	84.0	84.0	81.4	23	42.2	2	4	315	0.00	30.003 
14:20	84.0	84.0	81.5	24	43.3	1	3	315	0.00	30.003 
14:25	84.5	84.5	81.9	24	43.7	1	3	45	0.00	30.003 
14:30	85.1	85.1	82.3	23	43.1	0	2	45	0.00	30.002 
14:35	84.9	84.9	82.0	21	40.6	2	5	315	0.00	30.002 
14:40	84.5	84.5	81.8	23	42.6	2	6	270	0.00	30.002 
14:45	84.7	84.7	81.9	22	41.6	2	5	270	0.00	30.001 
14:50	85.1	85.1	82.2	21	40.7	1	3	270	0.00	30.001 
14:55	85.7	85.7	82.7	22	42.4	1	2	270	0.00	30.001 
15:00	85.9	85.9	82.9	22	42.6	2	6	270	0.00	29.992 
15:05	85.7	85.7	82.6	21	41.2	1	3	270	0.00	29.992 
15:10	85.3	85.3	82.3	20	39.7	2	5	292	0.00	29.992 
15:15	85.1	85.1	82.1	19	38.2	2	4	292	0.00	29.990 
15:20	84.7	84.7	81.8	20	39.2	1	2	315	0.00	29.990 
15:25	85.1	85.1	82.1	19	38.2	3	5	292	0.00	29.990 
15:30	85.3	85.3	82.2	19	38.3	1	3	292	0.00	29.987 
15:35	84.3	84.3	81.5	20	38.8	1	4	292	0.00	29.987 
15:40	84.0	84.0	81.3	20	38.6	2	4	315	0.00	29.987 
15:45	84.7	84.7	81.9	21	40.4	1	3	315	0.00	29.978 
15:50	85.7	85.7	82.5	19	38.7	1	3	315	0.00	29.978 
15:55	86.1	86.1	82.9	20	40.3	1	3	270	0.00	29.978 
16:00	86.1	86.1	82.9	20	40.3	1	4	270	0.00	29.974 
16:05	85.9	85.9	82.7	20	40.1	1	3	270	0.00	29.974 
16:10	85.7	85.7	82.6	20	40.0	2	5	292	0.00	29.974 
16:15	85.7	85.7	82.6	21	41.2	1	4	292	0.00	29.976 
16:20	85.7	85.7	82.6	20	40.0	3	5	292	0.00	29.976 
16:25	85.7	85.7	82.5	19	38.7	1	3	270	0.00	29.976 
16:30	85.7	85.7	82.5	19	38.7	2	4	270	0.00	29.974 
16:35	85.5	85.5	82.4	19	38.5	1	4	292	0.00	29.974 
16:40	85.1	85.1	82.1	20	39.5	1	3	315	0.00	29.974 
16:45	85.3	85.3	82.2	19	38.3	1	4	292	0.00	29.971 
16:50	85.3	85.3	82.3	20	39.7	3	6	270	0.00	29.971 
16:55	85.1	85.1	82.1	20	39.5	2	4	292	0.00	29.971 
17:00	85.5	85.5	82.4	20	39.8	1	2	270	0.00	29.964 
17:05	85.7	85.7	82.5	19	38.7	1	5	270	0.00	29.964 
17:10	85.3	85.3	82.2	19	38.3	2	5	270	0.00	29.964 
17:15	85.3	85.3	82.3	20	39.7	2	5	270	0.00	29.963 
17:20	85.3	85.3	82.2	19	38.3	2	5	270	0.00	29.963 
17:25	85.1	85.1	82.1	20	39.5	1	4	270	0.00	29.963 
17:30	85.3	85.3	82.2	19	38.3	1	3	270	0.00	29.960 
17:35	85.7	85.7	82.6	20	40.0	0	1	270	0.00	29.960 
17:40	85.9	85.9	82.7	20	40.1	1	4	292	0.00	29.960 
17:45	85.5	85.5	82.4	19	38.5	2	4	338	0.00	29.953 
17:50	85.5	85.5	82.4	19	38.5	1	4	315	0.00	29.953 
17:55	85.1	85.1	82.1	19	38.2	1	5	270	0.00	29.953 
18:00	84.9	84.9	82.0	20	39.3	1	5	270	0.00	29.948 
18:05	84.9	84.9	82.0	20	39.3	1	4	270	0.00	29.948 
18:10	84.9	84.9	82.0	20	39.3	0	2	270	0.00	29.948 
18:15	84.7	84.7	81.8	20	39.2	1	4	270	0.00	29.944 
18:20	84.5	84.5	81.7	20	39.0	0	1	270	0.00	29.944 
18:25	84.5	84.5	81.7	20	39.0	1	3	270	0.00	29.944 
18:30	84.3	84.3	81.6	21	40.1	1	3	292	0.00	29.940 
18:35	84.3	84.3	81.6	21	40.1	2	4	315	0.00	29.940 
18:40	84.5	84.5	81.7	20	39.0	2	4	292	0.00	29.940 
18:45	84.1	84.1	81.4	20	38.7	2	5	292	0.00	29.940 
18:50	84.1	84.1	81.4	21	39.9	0	1	270	0.00	29.940 
18:55	84.0	84.0	81.3	20	38.6	2	6	338	0.00	29.940 
19:00	84.0	84.0	81.3	21	39.8	1	3	270	0.00	29.942 
19:05	84.0	84.0	81.3	21	39.8	1	4	270	0.00	29.942 
19:10	84.0	84.0	81.3	20	38.6	2	4	270	0.00	29.942 
19:15	84.0	84.0	81.3	20	38.6	1	3	270	0.00	29.935 
19:20	83.8	83.8	81.1	20	38.4	1	3	270	0.00	29.935 
19:25	83.8	83.8	81.2	21	39.7	0	2	270	0.00	29.935 
19:30	83.8	83.8	81.1	20	38.4	1	4	270	0.00	29.935 
19:35	83.6	83.6	81.0	20	38.3	1	4	270	0.00	29.935 
19:40	83.4	83.4	80.8	20	38.1	1	3	270	0.00	29.935 
19:45	83.2	83.2	80.7	21	39.2	1	3	270	0.00	29.932 
19:50	83.0	83.0	80.6	21	39.0	1	3	270	0.00	29.932 
19:55	83.0	83.0	80.6	21	39.0	1	2	292	0.00	29.932 
20:00	82.8	82.8	80.5	21	38.9	0	1	292	0.00	29.925 
20:05	82.8	82.8	80.5	21	38.9	0	1	292	0.00	29.925 
20:10	82.6	82.6	80.3	21	38.7	1	2	292	0.00	29.925 
20:15	82.4	82.4	80.2	21	38.5	1	3	292	0.00	29.918 
20:20	82.2	82.2	80.1	22	39.5	0	1	292	0.00	29.918 
20:25	81.8	81.8	79.8	22	39.2	0	1	292	0.00	29.918 
20:30	81.6	81.6	79.7	22	39.0	0	1	292	0.00	29.917 
20:35	81.2	81.2	79.4	22	38.7	0	1	292	0.00	29.917 
20:40	80.9	80.9	79.3	23	39.6	0	1	292	0.00	29.917 
20:45	80.7	80.7	79.2	23	39.4	0	0	---	0.00	29.919 
20:50	80.3	80.3	79.0	24	40.2	0	0	---	0.00	29.919 
20:55	79.8	79.8	78.8	25	40.8	0	0	---	0.00	29.919 
21:00	79.4	79.4	78.5	25	40.5	0	0	---	0.00	29.920 
21:05	78.6	78.6	78.2	27	41.8	0	0	---	0.00	29.920 
21:10	77.9	77.9	77.9	27	41.2	0	0	---	0.00	29.920 
21:15	77.2	77.2	77.6	28	41.6	0	0	---	0.00	29.917 
21:20	76.1	76.1	77.2	28	40.6	0	0	---	0.00	29.917 
21:25	75.3	75.3	77.0	30	41.7	0	0	---	0.00	29.917 
21:30	74.6	74.6	74.6	32	42.8	0	0	---	0.00	29.918 
21:35	74.0	74.0	74.0	32	42.3	0	0	---	0.00	29.918 
21:40	73.3	73.3	73.3	35	44.0	0	0	---	0.00	29.918 
21:45	72.8	72.8	72.8	35	43.5	0	0	---	0.00	29.921 
21:50	72.1	72.1	72.1	37	44.4	0	1	292	0.00	29.921 
21:55	71.5	71.5	71.5	38	44.5	0	0	---	0.00	29.921 
22:00	70.9	70.9	70.9	39	44.7	0	0	---	0.00	29.924 
22:05	70.6	70.6	70.6	40	45.1	0	0	---	0.00	29.924 
22:10	70.1	70.1	70.1	41	45.3	0	0	---	0.00	29.924 
22:15	69.8	69.8	69.8	43	46.3	0	0	---	0.00	29.932 
22:20	69.4	69.4	69.4	43	45.9	0	0	---	0.00	29.932 
22:25	68.9	68.9	68.9	43	45.5	0	0	---	0.00	29.932 
22:30	68.6	68.6	68.6	43	45.2	0	0	---	0.00	29.934 
22:35	68.4	68.4	68.4	44	45.6	0	0	---	0.00	29.934 
22:40	68.3	68.3	68.3	45	46.1	0	0	---	0.00	29.934 
22:45	67.9	67.9	67.9	45	45.8	0	0	---	0.00	29.937 
22:50	67.8	67.8	67.8	46	46.3	0	0	---	0.00	29.937 
22:55	67.6	67.6	67.6	46	46.1	0	0	---	0.00	29.937 
23:00	67.6	67.6	67.6	45	45.5	0	0	---	0.00	29.940 
23:05	67.6	67.6	67.6	45	45.5	0	0	---	0.00	29.940 
23:10	67.6	67.6	67.6	46	46.1	0	0	---	0.00	29.940 
23:15	67.6	67.6	67.6	46	46.1	0	0	---	0.00	29.937 
23:20	67.4	67.4	67.4	46	45.9	0	0	---	0.00	29.937 
23:25	67.3	67.3	67.3	47	46.4	0	0	---	0.00	29.937 
23:30	67.1	67.1	67.1	46	45.6	0	0	---	0.00	29.937 
23:35	67.1	67.1	67.1	46	45.6	0	0	---	0.00	29.937 
23:40	66.9	66.9	66.9	46	45.4	0	0	---	0.00	29.937 
23:45	66.9	66.9	66.9	46	45.4	0	0	---	0.00	29.940 
23:50	66.9	66.9	66.9	47	46.0	0	0	---	0.00	29.940 
23:55	67.1	67.1	67.1	46	45.6	0	0	---	0.00	29.940 

CoCoRaHS
IN-AL-39
A2 Web Hosting
Creative Commons License
GoDaddy
search engine by freefind advanced

loaded 2018-11-20 06:14:35 • last modified 2010-11-18 10:43:29
Privacy PolicyDisclaimer
• wx.awcolley.com is powered by PmWiki v.2002016 •
• all content (unless otherwise noted) © 2018 A W Colley